sensor_id;sensor_type;location;lat;lon;timestamp;P1;durP1;ratioP1;P2;durP2;ratioP2
20150;SDS011;10236;49.638;6.830;2023-03-01T00:01:49;14.97;;;10.07;;
20150;SDS011;10236;49.638;6.830;2023-03-01T00:04:15;15.17;;;10.10;;
20150;SDS011;10236;49.638;6.830;2023-03-01T00:06:44;15.33;;;10.83;;
20150;SDS011;10236;49.638;6.830;2023-03-01T00:09:11;14.40;;;10.13;;
20150;SDS011;10236;49.638;6.830;2023-03-01T00:11:37;16.83;;;10.03;;
20150;SDS011;10236;49.638;6.830;2023-03-01T00:14:03;14.00;;;9.83;;
20150;SDS011;10236;49.638;6.830;2023-03-01T00:16:30;14.37;;;9.60;;
20150;SDS011;10236;49.638;6.830;2023-03-01T00:18:58;14.90;;;9.80;;
20150;SDS011;10236;49.638;6.830;2023-03-01T00:21:24;14.23;;;9.50;;
20150;SDS011;10236;49.638;6.830;2023-03-01T00:23:50;14.40;;;9.63;;
20150;SDS011;10236;49.638;6.830;2023-03-01T00:26:17;14.10;;;9.30;;
20150;SDS011;10236;49.638;6.830;2023-03-01T00:28:43;15.83;;;10.20;;
20150;SDS011;10236;49.638;6.830;2023-03-01T00:31:14;18.40;;;10.67;;
20150;SDS011;10236;49.638;6.830;2023-03-01T00:33:41;15.23;;;10.27;;
20150;SDS011;10236;49.638;6.830;2023-03-01T00:36:08;16.30;;;10.40;;
20150;SDS011;10236;49.638;6.830;2023-03-01T00:38:35;13.60;;;9.93;;
20150;SDS011;10236;49.638;6.830;2023-03-01T00:41:07;18.60;;;10.83;;
20150;SDS011;10236;49.638;6.830;2023-03-01T00:43:34;12.30;;;9.73;;
20150;SDS011;10236;49.638;6.830;2023-03-01T00:46:05;14.07;;;9.90;;
20150;SDS011;10236;49.638;6.830;2023-03-01T00:48:31;15.27;;;10.07;;
20150;SDS011;10236;49.638;6.830;2023-03-01T00:51:03;17.77;;;10.80;;
20150;SDS011;10236;49.638;6.830;2023-03-01T00:53:29;16.23;;;10.73;;
20150;SDS011;10236;49.638;6.830;2023-03-01T00:55:56;13.33;;;10.57;;
20150;SDS011;10236;49.638;6.830;2023-03-01T00:58:22;15.90;;;10.37;;
20150;SDS011;10236;49.638;6.830;2023-03-01T01:00:48;16.17;;;10.73;;
20150;SDS011;10236;49.638;6.830;2023-03-01T01:03:15;17.80;;;11.03;;
20150;SDS011;10236;49.638;6.830;2023-03-01T01:05:41;16.80;;;11.23;;
20150;SDS011;10236;49.638;6.830;2023-03-01T01:08:07;13.83;;;10.33;;
20150;SDS011;10236;49.638;6.830;2023-03-01T01:10:33;15.80;;;10.73;;
20150;SDS011;10236;49.638;6.830;2023-03-01T01:12:59;15.37;;;11.47;;
20150;SDS011;10236;49.638;6.830;2023-03-01T01:15:26;14.97;;;10.90;;
20150;SDS011;10236;49.638;6.830;2023-03-01T01:17:52;16.20;;;11.27;;
20150;SDS011;10236;49.638;6.830;2023-03-01T01:20:18;16.60;;;11.53;;
20150;SDS011;10236;49.638;6.830;2023-03-01T01:22:44;16.47;;;10.90;;
20150;SDS011;10236;49.638;6.830;2023-03-01T01:25:10;17.93;;;11.80;;
20150;SDS011;10236;49.638;6.830;2023-03-01T01:27:36;17.70;;;12.30;;
20150;SDS011;10236;49.638;6.830;2023-03-01T01:30:03;14.23;;;10.47;;
20150;SDS011;10236;49.638;6.830;2023-03-01T01:32:29;16.57;;;11.30;;
20150;SDS011;10236;49.638;6.830;2023-03-01T01:34:55;17.57;;;11.70;;
20150;SDS011;10236;49.638;6.830;2023-03-01T01:37:21;19.90;;;11.90;;
20150;SDS011;10236;49.638;6.830;2023-03-01T01:39:47;17.80;;;11.43;;
20150;SDS011;10236;49.638;6.830;2023-03-01T01:42:16;21.60;;;12.33;;
20150;SDS011;10236;49.638;6.830;2023-03-01T01:44:45;18.53;;;12.03;;
20150;SDS011;10236;49.638;6.830;2023-03-01T01:47:18;16.07;;;11.33;;
20150;SDS011;10236;49.638;6.830;2023-03-01T01:49:47;19.23;;;12.50;;
20150;SDS011;10236;49.638;6.830;2023-03-01T01:52:18;17.73;;;12.63;;
20150;SDS011;10236;49.638;6.830;2023-03-01T01:55:05;21.07;;;12.03;;
20150;SDS011;10236;49.638;6.830;2023-03-01T01:57:33;20.00;;;12.20;;
20150;SDS011;10236;49.638;6.830;2023-03-01T02:00:08;20.93;;;12.73;;
20150;SDS011;10236;49.638;6.830;2023-03-01T02:02:35;20.10;;;12.43;;
20150;SDS011;10236;49.638;6.830;2023-03-01T02:05:03;17.27;;;11.63;;
20150;SDS011;10236;49.638;6.830;2023-03-01T02:07:35;18.63;;;12.93;;
20150;SDS011;10236;49.638;6.830;2023-03-01T02:10:02;17.20;;;12.30;;
20150;SDS011;10236;49.638;6.830;2023-03-01T02:12:28;18.53;;;12.77;;
20150;SDS011;10236;49.638;6.830;2023-03-01T02:14:54;19.77;;;13.00;;
20150;SDS011;10236;49.638;6.830;2023-03-01T02:17:20;16.17;;;11.93;;
20150;SDS011;10236;49.638;6.830;2023-03-01T02:22:24;16.60;;;11.90;;
20150;SDS011;10236;49.638;6.830;2023-03-01T02:27:26;18.37;;;12.57;;
20150;SDS011;10236;49.638;6.830;2023-03-01T02:29:54;23.93;;;13.37;;
20150;SDS011;10236;49.638;6.830;2023-03-01T02:32:20;21.13;;;13.57;;
20150;SDS011;10236;49.638;6.830;2023-03-01T02:34:50;18.37;;;13.00;;
20150;SDS011;10236;49.638;6.830;2023-03-01T02:37:17;16.20;;;11.83;;
20150;SDS011;10236;49.638;6.830;2023-03-01T02:39:49;17.37;;;12.47;;
20150;SDS011;10236;49.638;6.830;2023-03-01T02:42:19;17.57;;;12.30;;
20150;SDS011;10236;49.638;6.830;2023-03-01T02:44:48;15.60;;;12.00;;
20150;SDS011;10236;49.638;6.830;2023-03-01T02:47:14;19.37;;;12.30;;
20150;SDS011;10236;49.638;6.830;2023-03-01T02:49:40;22.47;;;13.83;;
20150;SDS011;10236;49.638;6.830;2023-03-01T02:54:51;19.40;;;13.33;;
20150;SDS011;10236;49.638;6.830;2023-03-01T02:57:18;20.40;;;14.17;;
20150;SDS011;10236;49.638;6.830;2023-03-01T02:59:44;20.60;;;12.83;;
20150;SDS011;10236;49.638;6.830;2023-03-01T03:02:21;22.37;;;14.03;;
20150;SDS011;10236;49.638;6.830;2023-03-01T03:05:00;22.10;;;13.97;;
20150;SDS011;10236;49.638;6.830;2023-03-01T03:07:26;20.17;;;13.73;;
20150;SDS011;10236;49.638;6.830;2023-03-01T03:09:52;20.90;;;12.53;;
20150;SDS011;10236;49.638;6.830;2023-03-01T03:12:18;19.33;;;12.83;;
20150;SDS011;10236;49.638;6.830;2023-03-01T03:14:44;21.10;;;13.93;;
20150;SDS011;10236;49.638;6.830;2023-03-01T03:17:10;22.23;;;13.90;;
20150;SDS011;10236;49.638;6.830;2023-03-01T03:19:36;25.33;;;15.77;;
20150;SDS011;10236;49.638;6.830;2023-03-01T03:22:02;22.73;;;14.57;;
20150;SDS011;10236;49.638;6.830;2023-03-01T03:24:28;25.93;;;15.27;;
20150;SDS011;10236;49.638;6.830;2023-03-01T03:27:02;22.57;;;14.87;;
20150;SDS011;10236;49.638;6.830;2023-03-01T03:29:28;21.17;;;15.10;;
20150;SDS011;10236;49.638;6.830;2023-03-01T03:31:54;23.67;;;14.77;;
20150;SDS011;10236;49.638;6.830;2023-03-01T03:34:20;27.03;;;16.50;;
20150;SDS011;10236;49.638;6.830;2023-03-01T03:36:46;23.43;;;15.70;;
20150;SDS011;10236;49.638;6.830;2023-03-01T03:39:12;25.67;;;16.47;;
20150;SDS011;10236;49.638;6.830;2023-03-01T03:41:38;20.97;;;15.53;;
20150;SDS011;10236;49.638;6.830;2023-03-01T03:44:04;25.47;;;15.97;;
20150;SDS011;10236;49.638;6.830;2023-03-01T03:46:30;25.23;;;16.07;;
20150;SDS011;10236;49.638;6.830;2023-03-01T03:48:56;22.83;;;15.50;;
20150;SDS011;10236;49.638;6.830;2023-03-01T03:51:22;25.30;;;16.30;;
20150;SDS011;10236;49.638;6.830;2023-03-01T03:53:47;27.07;;;15.63;;
20150;SDS011;10236;49.638;6.830;2023-03-01T03:56:13;24.83;;;15.53;;
20150;SDS011;10236;49.638;6.830;2023-03-01T03:58:40;20.67;;;14.83;;
20150;SDS011;10236;49.638;6.830;2023-03-01T04:01:06;21.10;;;15.23;;
20150;SDS011;10236;49.638;6.830;2023-03-01T04:03:32;23.23;;;16.03;;
20150;SDS011;10236;49.638;6.830;2023-03-01T04:06:00;25.73;;;15.43;;
20150;SDS011;10236;49.638;6.830;2023-03-01T04:08:26;22.47;;;15.77;;
20150;SDS011;10236;49.638;6.830;2023-03-01T04:10:56;23.50;;;15.27;;
20150;SDS011;10236;49.638;6.830;2023-03-01T04:13:23;28.20;;;16.73;;
20150;SDS011;10236;49.638;6.830;2023-03-01T04:15:50;27.57;;;16.23;;
20150;SDS011;10236;49.638;6.830;2023-03-01T04:18:17;25.53;;;15.67;;
20150;SDS011;10236;49.638;6.830;2023-03-01T04:20:44;24.00;;;15.67;;
20150;SDS011;10236;49.638;6.830;2023-03-01T04:23:19;24.00;;;15.00;;
20150;SDS011;10236;49.638;6.830;2023-03-01T04:28:14;22.73;;;16.50;;
20150;SDS011;10236;49.638;6.830;2023-03-01T04:30:40;28.50;;;17.07;;
20150;SDS011;10236;49.638;6.830;2023-03-01T04:33:07;23.80;;;15.53;;
20150;SDS011;10236;49.638;6.830;2023-03-01T04:35:34;22.43;;;15.57;;
20150;SDS011;10236;49.638;6.830;2023-03-01T04:38:00;28.17;;;17.03;;
20150;SDS011;10236;49.638;6.830;2023-03-01T04:40:26;22.63;;;15.20;;
20150;SDS011;10236;49.638;6.830;2023-03-01T04:42:52;25.90;;;15.70;;
20150;SDS011;10236;49.638;6.830;2023-03-01T04:45:18;26.33;;;16.07;;
20150;SDS011;10236;49.638;6.830;2023-03-01T04:47:44;22.23;;;15.60;;
20150;SDS011;10236;49.638;6.830;2023-03-01T04:50:12;23.20;;;15.50;;
20150;SDS011;10236;49.638;6.830;2023-03-01T04:52:38;25.53;;;15.67;;
20150;SDS011;10236;49.638;6.830;2023-03-01T04:55:05;29.47;;;17.00;;
20150;SDS011;10236;49.638;6.830;2023-03-01T04:57:31;25.30;;;15.50;;
20150;SDS011;10236;49.638;6.830;2023-03-01T04:59:57;25.17;;;15.67;;
20150;SDS011;10236;49.638;6.830;2023-03-01T05:02:23;23.67;;;15.43;;
20150;SDS011;10236;49.638;6.830;2023-03-01T05:04:49;24.27;;;15.67;;
20150;SDS011;10236;49.638;6.830;2023-03-01T05:07:15;26.27;;;16.10;;
20150;SDS011;10236;49.638;6.830;2023-03-01T05:09:44;24.37;;;15.33;;
20150;SDS011;10236;49.638;6.830;2023-03-01T05:12:10;26.10;;;15.70;;
20150;SDS011;10236;49.638;6.830;2023-03-01T05:14:36;26.23;;;15.77;;
20150;SDS011;10236;49.638;6.830;2023-03-01T05:17:03;24.83;;;15.77;;
20150;SDS011;10236;49.638;6.830;2023-03-01T05:19:29;24.77;;;16.57;;
20150;SDS011;10236;49.638;6.830;2023-03-01T05:21:56;27.57;;;16.63;;
20150;SDS011;10236;49.638;6.830;2023-03-01T05:24:32;28.47;;;16.87;;
20150;SDS011;10236;49.638;6.830;2023-03-01T05:26:58;26.07;;;16.93;;
20150;SDS011;10236;49.638;6.830;2023-03-01T05:29:25;23.00;;;16.77;;
20150;SDS011;10236;49.638;6.830;2023-03-01T05:31:52;24.13;;;16.60;;
20150;SDS011;10236;49.638;6.830;2023-03-01T05:34:19;25.50;;;16.80;;
20150;SDS011;10236;49.638;6.830;2023-03-01T05:36:47;26.10;;;17.20;;
20150;SDS011;10236;49.638;6.830;2023-03-01T05:39:13;26.43;;;17.60;;
20150;SDS011;10236;49.638;6.830;2023-03-01T05:41:39;26.60;;;16.07;;
20150;SDS011;10236;49.638;6.830;2023-03-01T05:44:06;25.73;;;16.40;;
20150;SDS011;10236;49.638;6.830;2023-03-01T05:46:32;26.53;;;17.23;;
20150;SDS011;10236;49.638;6.830;2023-03-01T05:48:57;26.93;;;17.13;;
20150;SDS011;10236;49.638;6.830;2023-03-01T05:51:24;25.40;;;16.80;;
20150;SDS011;10236;49.638;6.830;2023-03-01T05:53:51;24.87;;;16.63;;
20150;SDS011;10236;49.638;6.830;2023-03-01T05:56:16;26.63;;;17.10;;
20150;SDS011;10236;49.638;6.830;2023-03-01T05:58:42;26.00;;;16.83;;
20150;SDS011;10236;49.638;6.830;2023-03-01T06:01:12;26.13;;;16.73;;
20150;SDS011;10236;49.638;6.830;2023-03-01T06:03:38;28.83;;;18.23;;
20150;SDS011;10236;49.638;6.830;2023-03-01T06:06:04;25.90;;;18.10;;
20150;SDS011;10236;49.638;6.830;2023-03-01T06:08:30;24.77;;;16.83;;
20150;SDS011;10236;49.638;6.830;2023-03-01T06:10:56;29.37;;;19.10;;
20150;SDS011;10236;49.638;6.830;2023-03-01T06:13:22;27.97;;;18.87;;
20150;SDS011;10236;49.638;6.830;2023-03-01T06:15:48;27.40;;;17.53;;
20150;SDS011;10236;49.638;6.830;2023-03-01T06:18:15;25.53;;;17.50;;
20150;SDS011;10236;49.638;6.830;2023-03-01T06:20:41;29.10;;;16.80;;
20150;SDS011;10236;49.638;6.830;2023-03-01T06:23:07;30.60;;;17.83;;
20150;SDS011;10236;49.638;6.830;2023-03-01T06:25:33;30.13;;;18.17;;
20150;SDS011;10236;49.638;6.830;2023-03-01T06:27:59;29.80;;;18.87;;
20150;SDS011;10236;49.638;6.830;2023-03-01T06:30:25;32.23;;;18.90;;
20150;SDS011;10236;49.638;6.830;2023-03-01T06:32:51;31.83;;;18.87;;
20150;SDS011;10236;49.638;6.830;2023-03-01T06:35:18;28.87;;;18.43;;
20150;SDS011;10236;49.638;6.830;2023-03-01T06:37:44;30.97;;;18.83;;
20150;SDS011;10236;49.638;6.830;2023-03-01T06:40:11;29.07;;;18.47;;
20150;SDS011;10236;49.638;6.830;2023-03-01T06:42:39;29.70;;;18.43;;
20150;SDS011;10236;49.638;6.830;2023-03-01T06:45:05;30.23;;;19.47;;
20150;SDS011;10236;49.638;6.830;2023-03-01T06:47:32;31.10;;;18.67;;
20150;SDS011;10236;49.638;6.830;2023-03-01T06:49:58;29.90;;;18.57;;
20150;SDS011;10236;49.638;6.830;2023-03-01T06:52:24;29.90;;;18.83;;
20150;SDS011;10236;49.638;6.830;2023-03-01T06:54:50;29.67;;;19.43;;
20150;SDS011;10236;49.638;6.830;2023-03-01T06:57:16;31.30;;;18.10;;
20150;SDS011;10236;49.638;6.830;2023-03-01T06:59:42;29.90;;;18.33;;
20150;SDS011;10236;49.638;6.830;2023-03-01T07:02:12;30.37;;;18.87;;
20150;SDS011;10236;49.638;6.830;2023-03-01T07:04:38;34.23;;;19.43;;
20150;SDS011;10236;49.638;6.830;2023-03-01T07:07:04;31.93;;;18.27;;
20150;SDS011;10236;49.638;6.830;2023-03-01T07:09:30;34.43;;;19.57;;
20150;SDS011;10236;49.638;6.830;2023-03-01T07:11:56;29.93;;;18.57;;
20150;SDS011;10236;49.638;6.830;2023-03-01T07:14:22;28.97;;;19.20;;
20150;SDS011;10236;49.638;6.830;2023-03-01T07:16:54;33.97;;;19.37;;
20150;SDS011;10236;49.638;6.830;2023-03-01T07:19:20;30.60;;;18.73;;
20150;SDS011;10236;49.638;6.830;2023-03-01T07:21:46;30.53;;;18.77;;
20150;SDS011;10236;49.638;6.830;2023-03-01T07:24:12;34.03;;;19.53;;
20150;SDS011;10236;49.638;6.830;2023-03-01T07:26:38;33.80;;;20.47;;
20150;SDS011;10236;49.638;6.830;2023-03-01T07:29:05;34.03;;;19.93;;
20150;SDS011;10236;49.638;6.830;2023-03-01T07:31:31;32.87;;;19.20;;
20150;SDS011;10236;49.638;6.830;2023-03-01T07:33:57;30.80;;;18.97;;
20150;SDS011;10236;49.638;6.830;2023-03-01T07:36:23;29.80;;;18.40;;
20150;SDS011;10236;49.638;6.830;2023-03-01T07:38:49;32.67;;;19.87;;
20150;SDS011;10236;49.638;6.830;2023-03-01T07:41:15;26.07;;;18.80;;
20150;SDS011;10236;49.638;6.830;2023-03-01T07:43:41;29.17;;;18.47;;
20150;SDS011;10236;49.638;6.830;2023-03-01T07:46:07;32.77;;;18.60;;
20150;SDS011;10236;49.638;6.830;2023-03-01T07:48:33;32.17;;;19.27;;
20150;SDS011;10236;49.638;6.830;2023-03-01T07:51:00;29.17;;;18.90;;
20150;SDS011;10236;49.638;6.830;2023-03-01T07:53:26;30.87;;;18.97;;
20150;SDS011;10236;49.638;6.830;2023-03-01T07:56:05;32.33;;;18.73;;
20150;SDS011;10236;49.638;6.830;2023-03-01T07:58:33;30.57;;;18.73;;
20150;SDS011;10236;49.638;6.830;2023-03-01T08:01:03;30.03;;;18.40;;
20150;SDS011;10236;49.638;6.830;2023-03-01T08:03:29;28.90;;;19.53;;
20150;SDS011;10236;49.638;6.830;2023-03-01T08:05:55;26.87;;;17.93;;
20150;SDS011;10236;49.638;6.830;2023-03-01T08:08:21;30.77;;;19.27;;
20150;SDS011;10236;49.638;6.830;2023-03-01T08:10:47;30.83;;;19.23;;
20150;SDS011;10236;49.638;6.830;2023-03-01T08:13:13;32.87;;;18.13;;
20150;SDS011;10236;49.638;6.830;2023-03-01T08:15:38;28.23;;;18.67;;
20150;SDS011;10236;49.638;6.830;2023-03-01T08:18:04;26.90;;;17.37;;
20150;SDS011;10236;49.638;6.830;2023-03-01T08:20:31;30.77;;;18.57;;
20150;SDS011;10236;49.638;6.830;2023-03-01T08:22:57;29.23;;;19.47;;
20150;SDS011;10236;49.638;6.830;2023-03-01T08:25:23;32.27;;;19.07;;
20150;SDS011;10236;49.638;6.830;2023-03-01T08:27:49;26.40;;;17.47;;
20150;SDS011;10236;49.638;6.830;2023-03-01T08:30:15;31.00;;;18.53;;
20150;SDS011;10236;49.638;6.830;2023-03-01T08:32:41;28.70;;;18.73;;
20150;SDS011;10236;49.638;6.830;2023-03-01T08:35:07;27.17;;;18.00;;
20150;SDS011;10236;49.638;6.830;2023-03-01T08:37:33;25.93;;;18.07;;
20150;SDS011;10236;49.638;6.830;2023-03-01T08:40:00;36.50;;;18.57;;
20150;SDS011;10236;49.638;6.830;2023-03-01T08:42:26;26.73;;;17.27;;
20150;SDS011;10236;49.638;6.830;2023-03-01T08:44:52;28.00;;;17.90;;
20150;SDS011;10236;49.638;6.830;2023-03-01T08:47:18;29.13;;;17.80;;
20150;SDS011;10236;49.638;6.830;2023-03-01T08:49:44;28.00;;;17.87;;
20150;SDS011;10236;49.638;6.830;2023-03-01T08:52:10;27.17;;;17.97;;
20150;SDS011;10236;49.638;6.830;2023-03-01T08:54:36;29.47;;;17.97;;
20150;SDS011;10236;49.638;6.830;2023-03-01T08:57:02;26.67;;;17.87;;
20150;SDS011;10236;49.638;6.830;2023-03-01T08:59:28;26.80;;;18.50;;
20150;SDS011;10236;49.638;6.830;2023-03-01T09:01:54;26.93;;;17.13;;
20150;SDS011;10236;49.638;6.830;2023-03-01T09:04:21;28.73;;;18.03;;
20150;SDS011;10236;49.638;6.830;2023-03-01T09:06:46;25.43;;;17.53;;
20150;SDS011;10236;49.638;6.830;2023-03-01T09:09:14;22.83;;;16.80;;
20150;SDS011;10236;49.638;6.830;2023-03-01T09:11:41;27.60;;;17.17;;
20150;SDS011;10236;49.638;6.830;2023-03-01T09:14:07;23.37;;;16.50;;
20150;SDS011;10236;49.638;6.830;2023-03-01T09:16:33;25.47;;;17.27;;
20150;SDS011;10236;49.638;6.830;2023-03-01T09:19:01;26.77;;;16.67;;
20150;SDS011;10236;49.638;6.830;2023-03-01T09:21:27;27.73;;;17.00;;
20150;SDS011;10236;49.638;6.830;2023-03-01T09:23:53;27.00;;;17.83;;
20150;SDS011;10236;49.638;6.830;2023-03-01T09:26:19;23.67;;;16.90;;
20150;SDS011;10236;49.638;6.830;2023-03-01T09:28:46;23.40;;;15.57;;
20150;SDS011;10236;49.638;6.830;2023-03-01T09:31:13;27.30;;;15.87;;
20150;SDS011;10236;49.638;6.830;2023-03-01T09:33:40;24.13;;;15.93;;
20150;SDS011;10236;49.638;6.830;2023-03-01T09:36:07;23.17;;;15.80;;
20150;SDS011;10236;49.638;6.830;2023-03-01T09:38:34;21.77;;;15.57;;
20150;SDS011;10236;49.638;6.830;2023-03-01T09:41:00;23.80;;;15.60;;
20150;SDS011;10236;49.638;6.830;2023-03-01T09:43:29;26.20;;;16.83;;
20150;SDS011;10236;49.638;6.830;2023-03-01T09:45:59;22.03;;;15.63;;
20150;SDS011;10236;49.638;6.830;2023-03-01T09:48:29;23.20;;;16.27;;
20150;SDS011;10236;49.638;6.830;2023-03-01T09:50:58;25.43;;;16.50;;
20150;SDS011;10236;49.638;6.830;2023-03-01T09:53:31;23.13;;;16.13;;
20150;SDS011;10236;49.638;6.830;2023-03-01T09:58:31;24.10;;;16.37;;
20150;SDS011;10236;49.638;6.830;2023-03-01T10:01:02;26.60;;;15.80;;
20150;SDS011;10236;49.638;6.830;2023-03-01T10:03:39;28.23;;;15.70;;
20150;SDS011;10236;49.638;6.830;2023-03-01T10:06:20;26.50;;;16.23;;
20150;SDS011;10236;49.638;6.830;2023-03-01T10:08:53;24.23;;;15.27;;
20150;SDS011;10236;49.638;6.830;2023-03-01T10:11:53;24.47;;;15.87;;
20150;SDS011;10236;49.638;6.830;2023-03-01T10:14:34;25.53;;;16.10;;
20150;SDS011;10236;49.638;6.830;2023-03-01T10:17:03;25.17;;;16.07;;
20150;SDS011;10236;49.638;6.830;2023-03-01T10:19:37;24.77;;;16.07;;
20150;SDS011;10236;49.638;6.830;2023-03-01T10:22:07;21.17;;;14.37;;
20150;SDS011;10236;49.638;6.830;2023-03-01T10:24:36;21.03;;;14.83;;
20150;SDS011;10236;49.638;6.830;2023-03-01T10:27:07;20.33;;;13.90;;
20150;SDS011;10236;49.638;6.830;2023-03-01T10:29:41;20.43;;;15.17;;
20150;SDS011;10236;49.638;6.830;2023-03-01T10:32:11;22.13;;;14.93;;
20150;SDS011;10236;49.638;6.830;2023-03-01T10:34:37;23.57;;;15.10;;
20150;SDS011;10236;49.638;6.830;2023-03-01T10:37:14;22.67;;;15.10;;
20150;SDS011;10236;49.638;6.830;2023-03-01T10:42:28;20.37;;;14.13;;
20150;SDS011;10236;49.638;6.830;2023-03-01T10:44:55;20.30;;;13.60;;
20150;SDS011;10236;49.638;6.830;2023-03-01T10:47:25;21.33;;;15.37;;
20150;SDS011;10236;49.638;6.830;2023-03-01T10:50:02;18.07;;;14.60;;
20150;SDS011;10236;49.638;6.830;2023-03-01T10:52:30;19.77;;;14.43;;
20150;SDS011;10236;49.638;6.830;2023-03-01T10:55:01;21.73;;;14.87;;
20150;SDS011;10236;49.638;6.830;2023-03-01T10:57:28;19.97;;;13.03;;
20150;SDS011;10236;49.638;6.830;2023-03-01T11:00:10;22.00;;;14.17;;
20150;SDS011;10236;49.638;6.830;2023-03-01T11:02:41;20.60;;;15.53;;
20150;SDS011;10236;49.638;6.830;2023-03-01T11:07:47;17.57;;;13.63;;
20150;SDS011;10236;49.638;6.830;2023-03-01T11:10:21;19.13;;;13.67;;
20150;SDS011;10236;49.638;6.830;2023-03-01T11:12:47;21.80;;;14.33;;
20150;SDS011;10236;49.638;6.830;2023-03-01T11:15:20;18.97;;;14.43;;
20150;SDS011;10236;49.638;6.830;2023-03-01T11:17:46;17.60;;;13.80;;
20150;SDS011;10236;49.638;6.830;2023-03-01T11:22:46;17.80;;;13.20;;
20150;SDS011;10236;49.638;6.830;2023-03-01T11:25:13;16.20;;;12.83;;
20150;SDS011;10236;49.638;6.830;2023-03-01T11:27:40;15.53;;;12.00;;
20150;SDS011;10236;49.638;6.830;2023-03-01T11:30:25;16.70;;;12.83;;
20150;SDS011;10236;49.638;6.830;2023-03-01T11:33:03;14.70;;;12.17;;
20150;SDS011;10236;49.638;6.830;2023-03-01T11:35:30;15.10;;;11.93;;
20150;SDS011;10236;49.638;6.830;2023-03-01T11:43:16;16.70;;;12.93;;
20150;SDS011;10236;49.638;6.830;2023-03-01T11:45:48;18.77;;;13.83;;
20150;SDS011;10236;49.638;6.830;2023-03-01T11:51:05;12.83;;;10.53;;
20150;SDS011;10236;49.638;6.830;2023-03-01T11:56:28;13.50;;;10.40;;
20150;SDS011;10236;49.638;6.830;2023-03-01T12:04:17;15.73;;;11.60;;
20150;SDS011;10236;49.638;6.830;2023-03-01T12:06:57;17.63;;;13.10;;
20150;SDS011;10236;49.638;6.830;2023-03-01T12:09:27;19.27;;;14.53;;
20150;SDS011;10236;49.638;6.830;2023-03-01T12:12:31;15.90;;;12.97;;
20150;SDS011;10236;49.638;6.830;2023-03-01T12:14:59;16.67;;;13.33;;
20150;SDS011;10236;49.638;6.830;2023-03-01T12:20:08;15.50;;;12.60;;
20150;SDS011;10236;49.638;6.830;2023-03-01T12:25:12;16.07;;;13.63;;
20150;SDS011;10236;49.638;6.830;2023-03-01T12:27:50;18.10;;;13.90;;
20150;SDS011;10236;49.638;6.830;2023-03-01T12:30:25;16.07;;;13.40;;
20150;SDS011;10236;49.638;6.830;2023-03-01T12:35:40;17.97;;;13.37;;
20150;SDS011;10236;49.638;6.830;2023-03-01T12:43:12;15.57;;;12.47;;
20150;SDS011;10236;49.638;6.830;2023-03-01T12:45:48;16.43;;;13.17;;
20150;SDS011;10236;49.638;6.830;2023-03-01T12:50:52;15.70;;;12.27;;
20150;SDS011;10236;49.638;6.830;2023-03-01T12:53:22;15.47;;;12.43;;
20150;SDS011;10236;49.638;6.830;2023-03-01T12:55:49;15.80;;;12.90;;
20150;SDS011;10236;49.638;6.830;2023-03-01T13:03:25;14.80;;;11.77;;
20150;SDS011;10236;49.638;6.830;2023-03-01T13:06:05;14.67;;;10.93;;
20150;SDS011;10236;49.638;6.830;2023-03-01T13:11:29;11.90;;;10.23;;
20150;SDS011;10236;49.638;6.830;2023-03-01T13:16:41;14.77;;;11.47;;
20150;SDS011;10236;49.638;6.830;2023-03-01T13:19:17;13.17;;;11.10;;
20150;SDS011;10236;49.638;6.830;2023-03-01T13:21:44;13.77;;;10.77;;
20150;SDS011;10236;49.638;6.830;2023-03-01T13:27:09;13.57;;;11.10;;
20150;SDS011;10236;49.638;6.830;2023-03-01T13:29:48;14.03;;;11.67;;
20150;SDS011;10236;49.638;6.830;2023-03-01T13:32:24;14.40;;;10.83;;
20150;SDS011;10236;49.638;6.830;2023-03-01T13:35:40;15.63;;;12.60;;
20150;SDS011;10236;49.638;6.830;2023-03-01T13:37:51;18.03;;;12.60;;
20150;SDS011;10236;49.638;6.830;2023-03-01T13:42:47;17.57;;;13.23;;
20150;SDS011;10236;49.638;6.830;2023-03-01T13:45:15;15.07;;;12.43;;
20150;SDS011;10236;49.638;6.830;2023-03-01T13:47:44;16.00;;;13.37;;
20150;SDS011;10236;49.638;6.830;2023-03-01T13:50:24;16.00;;;13.40;;
20150;SDS011;10236;49.638;6.830;2023-03-01T13:52:52;20.27;;;14.40;;
20150;SDS011;10236;49.638;6.830;2023-03-01T13:57:48;18.20;;;14.33;;
20150;SDS011;10236;49.638;6.830;2023-03-01T14:00:35;17.80;;;13.87;;
20150;SDS011;10236;49.638;6.830;2023-03-01T14:05:33;18.10;;;13.67;;
20150;SDS011;10236;49.638;6.830;2023-03-01T14:08:01;17.77;;;14.00;;
20150;SDS011;10236;49.638;6.830;2023-03-01T14:10:29;17.23;;;13.60;;
20150;SDS011;10236;49.638;6.830;2023-03-01T14:13:01;21.10;;;14.40;;
20150;SDS011;10236;49.638;6.830;2023-03-01T14:15:31;18.47;;;14.03;;
20150;SDS011;10236;49.638;6.830;2023-03-01T14:20:25;18.07;;;13.93;;
20150;SDS011;10236;49.638;6.830;2023-03-01T14:22:53;18.17;;;13.67;;
20150;SDS011;10236;49.638;6.830;2023-03-01T14:25:27;15.70;;;12.83;;
20150;SDS011;10236;49.638;6.830;2023-03-01T14:28:10;16.33;;;12.83;;
20150;SDS011;10236;49.638;6.830;2023-03-01T14:30:43;17.67;;;12.40;;
20150;SDS011;10236;49.638;6.830;2023-03-01T14:35:55;18.33;;;13.97;;
20150;SDS011;10236;49.638;6.830;2023-03-01T14:38:30;17.23;;;12.80;;
20150;SDS011;10236;49.638;6.830;2023-03-01T14:41:00;16.27;;;13.17;;
20150;SDS011;10236;49.638;6.830;2023-03-01T14:43:27;17.70;;;13.67;;
20150;SDS011;10236;49.638;6.830;2023-03-01T14:45:54;18.47;;;14.33;;
20150;SDS011;10236;49.638;6.830;2023-03-01T14:48:20;18.30;;;14.73;;
20150;SDS011;10236;49.638;6.830;2023-03-01T14:50:47;16.70;;;13.37;;
20150;SDS011;10236;49.638;6.830;2023-03-01T14:53:20;17.33;;;13.60;;
20150;SDS011;10236;49.638;6.830;2023-03-01T15:00:56;16.83;;;12.83;;
20150;SDS011;10236;49.638;6.830;2023-03-01T15:03:33;16.70;;;13.37;;
20150;SDS011;10236;49.638;6.830;2023-03-01T15:06:00;15.77;;;12.87;;
20150;SDS011;10236;49.638;6.830;2023-03-01T15:08:26;16.63;;;13.90;;
20150;SDS011;10236;49.638;6.830;2023-03-01T15:11:43;14.60;;;11.90;;
20150;SDS011;10236;49.638;6.830;2023-03-01T15:13:44;17.10;;;13.13;;
20150;SDS011;10236;49.638;6.830;2023-03-01T15:16:12;18.73;;;14.87;;
20150;SDS011;10236;49.638;6.830;2023-03-01T15:18:43;17.17;;;13.10;;
20150;SDS011;10236;49.638;6.830;2023-03-01T15:21:18;19.03;;;14.20;;
20150;SDS011;10236;49.638;6.830;2023-03-01T15:23:50;18.83;;;13.50;;
20150;SDS011;10236;49.638;6.830;2023-03-01T15:26:21;16.17;;;13.70;;
20150;SDS011;10236;49.638;6.830;2023-03-01T15:28:49;19.40;;;13.70;;
20150;SDS011;10236;49.638;6.830;2023-03-01T15:31:23;19.67;;;14.30;;
20150;SDS011;10236;49.638;6.830;2023-03-01T15:33:49;16.43;;;12.73;;
20150;SDS011;10236;49.638;6.830;2023-03-01T15:39:00;16.53;;;13.20;;
20150;SDS011;10236;49.638;6.830;2023-03-01T15:41:28;19.43;;;13.57;;
20150;SDS011;10236;49.638;6.830;2023-03-01T15:43:56;17.60;;;13.50;;
20150;SDS011;10236;49.638;6.830;2023-03-01T15:46:26;18.50;;;12.67;;
20150;SDS011;10236;49.638;6.830;2023-03-01T15:48:57;15.30;;;11.67;;
20150;SDS011;10236;49.638;6.830;2023-03-01T15:51:27;13.73;;;10.63;;
20150;SDS011;10236;49.638;6.830;2023-03-01T15:53:54;17.23;;;12.03;;
20150;SDS011;10236;49.638;6.830;2023-03-01T15:56:20;16.23;;;11.83;;